Time;durP1;ratioP1;P1;durP2;ratioP2;P2;SDS_P1;SDS_P2;PMS_P1;PMS_P2;Temp;Humidity;BMP_temperature;BMP_pressure;BME280_temperature;BME280_humidity;BME280_pressure;Samples;Min_cycle;Max_cycle;Signal;HPM_P1;HPM_P2
2022/03/14 00:02:19;;;;;;;2.33;1.70;;;;;;;11.46;66.44;101524.13;5035559;28;20475;-59
2022/03/14 00:04:45;;;;;;;2.42;1.65;;;;;;;11.44;66.60;101525.00;5035893;28;20029;-59
2022/03/14 00:07:12;;;;;;;2.60;1.70;;;;;;;11.43;66.26;101532.00;5035273;28;20433;-60
2022/03/14 00:09:37;;;;;;;2.25;1.65;;;;;;;11.53;66.14;101530.19;5035244;28;20061;-59
2022/03/14 00:12:04;;;;;;;2.92;1.80;;;;;;;11.35;67.19;101533.81;5035109;28;20183;-59
2022/03/14 00:14:30;;;;;;;2.42;1.88;;;;;;;11.29;67.43;101533.81;5035237;28;20060;-59
2022/03/14 00:16:55;;;;;;;2.30;1.83;;;;;;;11.30;67.17;101530.31;5035114;28;20437;-59
2022/03/14 00:19:20;;;;;;;2.03;1.67;;;;;;;11.24;67.72;101530.38;5035384;28;20057;-59
2022/03/14 00:21:46;;;;;;;2.22;1.75;;;;;;;11.29;67.59;101549.53;5035167;28;20065;-60
2022/03/14 00:24:12;;;;;;;2.00;1.80;;;;;;;11.24;67.61;101546.09;5034914;28;20344;-60
2022/03/14 00:26:39;;;;;;;2.80;1.73;;;;;;;11.25;67.86;101550.47;5034136;28;20037;-60
2022/03/14 00:29:05;;;;;;;2.30;1.80;;;;;;;11.28;67.82;101549.56;5035132;28;20021;-60
2022/03/14 00:31:31;;;;;;;2.63;2.00;;;;;;;11.24;67.90;101564.44;5035255;28;20053;-59
2022/03/14 00:33:56;;;;;;;2.90;1.75;;;;;;;11.27;67.77;101568.78;5034991;28;20417;-60
2022/03/14 00:36:22;;;;;;;2.38;2.00;;;;;;;11.23;67.84;101556.59;5034789;28;20117;-61
2022/03/14 00:38:47;;;;;;;3.83;2.13;;;;;;;11.24;68.19;101572.31;5034807;28;20053;-60
2022/03/14 00:41:16;;;;;;;2.42;1.98;;;;;;;11.22;68.09;101571.44;5034810;28;20036;-60
2022/03/14 00:43:42;;;;;;;2.90;2.10;;;;;;;11.18;68.45;101568.81;5034823;28;20033;-59
2022/03/14 00:46:08;;;;;;;2.40;2.00;;;;;;;11.18;68.51;101581.91;5034994;28;20033;-60
2022/03/14 00:48:34;;;;;;;2.67;2.10;;;;;;;11.03;68.89;101564.53;5034990;28;20029;-60
2022/03/14 00:51:00;;;;;;;2.30;1.88;;;;;;;11.19;68.83;101587.16;5034998;28;20029;-59
2022/03/14 00:53:27;;;;;;;4.05;2.10;;;;;;;11.10;69.40;101593.28;5034842;28;20041;-60
2022/03/14 00:55:52;;;;;;;2.92;2.33;;;;;;;11.11;69.40;101594.16;5034766;28;20037;-60
2022/03/14 00:58:17;;;;;;;2.42;2.00;;;;;;;11.20;69.00;101594.13;5034706;28;20039;-59
2022/03/14 01:00:43;;;;;;;3.17;2.13;;;;;;;11.16;71.25;101595.91;5034794;28;20029;-60
2022/03/14 01:03:08;;;;;;;2.40;2.10;;;;;;;11.02;72.43;101595.06;5034652;28;20104;-62
2022/03/14 01:05:34;;;;;;;4.07;2.55;;;;;;;10.97;72.70;101602.06;5034618;28;20049;-60
2022/03/14 01:07:59;;;;;;;3.88;2.47;;;;;;;10.92;73.49;101605.56;5034694;28;20408;-59
2022/03/14 01:10:25;;;;;;;4.53;2.60;;;;;;;10.93;73.10;101615.16;5034441;28;20128;-59
2022/03/14 01:12:50;;;;;;;3.22;2.33;;;;;;;10.95;72.76;101613.41;5034574;28;20034;-59
2022/03/14 01:15:15;;;;;;;3.55;2.45;;;;;;;10.97;72.59;101619.53;5034444;28;20029;-60
2022/03/14 01:17:41;;;;;;;5.60;2.55;;;;;;;10.89;73.02;101616.06;5034754;28;20091;-60
2022/03/14 01:20:08;;;;;;;3.00;2.45;;;;;;;10.90;73.21;101615.19;5034736;28;20049;-60
2022/03/14 01:22:34;;;;;;;2.83;2.40;;;;;;;10.90;73.17;101628.28;5034535;28;20034;-60
2022/03/14 01:25:00;;;;;;;3.13;2.65;;;;;;;10.85;73.34;101624.81;5034165;28;20100;-59
2022/03/14 01:27:25;;;;;;;4.80;2.90;;;;;;;10.86;74.24;101631.78;5034564;28;20368;-59
2022/03/14 01:29:50;;;;;;;5.32;2.30;;;;;;;10.82;74.13;101644.00;5034657;28;20191;-59
2022/03/14 01:32:16;;;;;;;2.90;2.40;;;;;;;10.80;74.32;101633.53;5035014;28;20037;-59
2022/03/14 01:34:41;;;;;;;4.68;2.80;;;;;;;10.84;73.70;101638.75;5034612;28;20037;-60
2022/03/14 01:37:06;;;;;;;5.20;2.60;;;;;;;10.80;73.76;101640.50;5034275;28;20041;-59
2022/03/14 01:39:32;;;;;;;5.07;3.13;;;;;;;10.66;74.06;101610.88;5036620;28;20037;-59
2022/03/14 01:41:57;;;;;;;4.10;2.70;;;;;;;10.82;73.77;101634.41;5037946;28;20036;-59
2022/03/14 01:44:23;;;;;;;5.35;3.10;;;;;;;10.75;74.04;101637.03;5038093;28;20064;-59
2022/03/14 01:46:49;;;;;;;3.92;2.90;;;;;;;10.72;74.52;101640.53;5038002;28;20029;-59
2022/03/14 01:49:14;;;;;;;4.05;2.90;;;;;;;10.78;74.10;101642.25;5038097;28;20033;-59
2022/03/14 01:51:41;;;;;;;3.28;2.65;;;;;;;10.79;73.98;101649.25;5037894;28;20116;-59
2022/03/14 01:54:08;;;;;;;3.42;2.85;;;;;;;10.76;73.79;101650.13;5037662;28;20135;-59
2022/03/14 01:56:35;;;;;;;3.33;2.88;;;;;;;10.77;73.87;101649.25;5037568;28;20033;-58
2022/03/14 01:59:00;;;;;;;4.05;3.08;;;;;;;10.77;73.69;101657.09;5037260;28;20463;-59
2022/03/14 02:01:26;;;;;;;3.30;2.78;;;;;;;10.80;73.77;101666.69;5037711;28;20040;-59
2022/03/14 02:03:51;;;;;;;3.53;2.70;;;;;;;10.75;73.87;101657.97;5037818;28;20057;-59
2022/03/14 02:06:17;;;;;;;3.55;2.92;;;;;;;10.70;74.18;101650.13;5037723;28;20428;-59
2022/03/14 02:08:43;;;;;;;4.32;2.80;;;;;;;10.81;74.20;101663.19;5037544;28;20045;-59
2022/03/14 02:11:08;;;;;;;3.45;2.55;;;;;;;10.81;74.00;101664.06;5037628;28;20076;-59
2022/03/14 02:13:33;;;;;;;4.40;3.10;;;;;;;10.78;74.04;101664.06;5037572;28;20037;-58
2022/03/14 02:15:59;;;;;;;4.13;2.88;;;;;;;10.74;74.68;101672.78;5037512;28;20115;-59
2022/03/14 02:18:24;;;;;;;3.95;3.28;;;;;;;10.79;74.70;101672.81;5037276;28;20399;-59
2022/03/14 02:20:50;;;;;;;4.45;3.80;;;;;;;10.60;75.49;101677.19;5037263;28;20033;-59
2022/03/14 02:23:15;;;;;;;3.97;3.40;;;;;;;10.68;74.75;101674.56;5037574;28;20347;-59
2022/03/14 02:25:51;;;;;;;5.25;3.45;;;;;;;10.73;74.63;101681.56;5037172;28;20187;-59
2022/03/14 02:28:19;;;;;;;4.63;3.80;;;;;;;10.59;75.59;101683.28;5037094;28;20441;-59
2022/03/14 02:30:45;;;;;;;4.82;3.50;;;;;;;10.61;75.51;101683.28;5037247;28;20026;-60
2022/03/14 02:33:10;;;;;;;4.55;3.28;;;;;;;10.57;75.65;101684.16;5036792;28;20116;-61
2022/03/14 02:35:39;;;;;;;4.28;3.20;;;;;;;10.61;75.24;101678.91;5037172;28;20040;-59
2022/03/14 02:38:07;;;;;;;3.95;3.42;;;;;;;10.60;75.28;101685.03;5036930;28;20055;-59
2022/03/14 02:40:33;;;;;;;4.40;3.50;;;;;;;10.55;75.71;101686.78;5036807;28;20551;-59
2022/03/14 02:43:00;;;;;;;4.05;3.22;;;;;;;10.55;75.84;101685.91;5036802;28;20029;-59
2022/03/14 02:45:25;;;;;;;5.70;3.50;;;;;;;10.49;76.08;101676.31;5037048;28;20098;-59
2022/03/14 02:47:50;;;;;;;3.78;3.15;;;;;;;10.64;75.14;101691.13;5036731;28;20033;-59
2022/03/14 02:50:16;;;;;;;3.95;2.92;;;;;;;10.53;76.10;101690.28;5036128;28;20030;-60
2022/03/14 02:52:42;;;;;;;4.95;3.50;;;;;;;10.52;75.70;101697.25;5036751;28;20065;-59
2022/03/14 02:55:07;;;;;;;3.45;3.10;;;;;;;10.50;75.95;101703.34;5036986;28;20029;-59
2022/03/14 02:57:32;;;;;;;3.50;3.00;;;;;;;10.41;76.49;101709.44;5036478;28;20110;-59
2022/03/14 02:59:58;;;;;;;4.05;3.30;;;;;;;10.37;76.71;101715.56;5036702;28;20042;-59
2022/03/14 03:02:25;;;;;;;4.03;3.33;;;;;;;10.36;76.76;101724.28;5036483;28;20451;-59
2022/03/14 03:04:51;;;;;;;6.00;3.45;;;;;;;10.44;76.31;101725.16;5036085;28;20463;-59
2022/03/14 03:07:19;;;;;;;3.40;2.85;;;;;;;10.36;76.48;101719.91;5036232;28;20053;-59
2022/03/14 03:09:45;;;;;;;4.60;3.20;;;;;;;10.36;76.45;101743.47;5036454;28;20017;-59
2022/03/14 03:12:14;;;;;;;3.53;3.22;;;;;;;10.29;76.73;101749.53;5036466;28;20033;-59
2022/03/14 03:14:39;;;;;;;4.82;3.42;;;;;;;10.26;76.49;101744.31;5036384;28;20048;-59
2022/03/14 03:17:06;;;;;;;4.20;3.22;;;;;;;10.28;76.72;101750.41;5036159;28;20436;-59
2022/03/14 03:19:32;;;;;;;3.70;3.28;;;;;;;10.28;76.67;101760.00;5036186;28;20045;-58
2022/03/14 03:21:57;;;;;;;4.50;3.22;;;;;;;10.27;77.00;101753.03;5036331;28;20047;-59
2022/03/14 03:24:22;;;;;;;3.88;3.30;;;;;;;10.24;77.67;101773.94;5036307;28;20367;-59
2022/03/14 03:26:47;;;;;;;4.80;3.20;;;;;;;10.18;78.93;101771.28;5036069;28;20113;-59
2022/03/14 03:29:13;;;;;;;4.07;3.47;;;;;;;10.12;79.74;101777.38;5036250;28;20037;-59
2022/03/14 03:31:38;;;;;;;4.25;3.35;;;;;;;10.17;79.86;101787.84;5036062;28;20028;-59
2022/03/14 03:34:04;;;;;;;4.30;3.58;;;;;;;10.02;81.17;101802.63;5035856;28;20037;-60
2022/03/14 03:36:30;;;;;;;5.20;3.88;;;;;;;9.92;81.89;101805.16;5035608;28;20041;-59
2022/03/14 03:38:58;;;;;;;5.18;3.58;;;;;;;9.90;82.14;101809.50;5035581;28;20499;-58
2022/03/14 03:41:23;;;;;;;5.22;3.88;;;;;;;9.90;81.70;101815.63;5035851;28;20029;-59
2022/03/14 03:43:48;;;;;;;4.32;3.92;;;;;;;9.92;81.04;101819.13;5035928;28;20099;-59
2022/03/14 03:46:14;;;;;;;5.22;4.20;;;;;;;9.89;81.29;101816.47;5035602;28;20045;-58
2022/03/14 03:48:39;;;;;;;4.80;4.22;;;;;;;9.84;81.58;101819.97;5035731;28;20098;-59
2022/03/14 03:51:05;;;;;;;4.90;4.35;;;;;;;9.90;81.37;101828.69;5035880;28;20040;-58
2022/03/14 03:53:30;;;;;;;5.95;4.22;;;;;;;9.91;81.73;101838.28;5035629;28;20410;-58
2022/03/14 03:55:55;;;;;;;4.20;3.80;;;;;;;9.87;82.04;101838.28;5035518;28;20052;-58
2022/03/14 03:58:20;;;;;;;5.22;4.30;;;;;;;9.90;81.95;101851.34;5035610;28;20042;-58
2022/03/14 04:00:46;;;;;;;6.13;4.60;;;;;;;9.90;82.01;101851.34;5034837;28;20080;-60
2022/03/14 04:03:11;;;;;;;5.47;4.38;;;;;;;9.64;83.36;101844.25;5034822;28;20356;-58
2022/03/14 04:05:39;;;;;;;7.88;5.10;;;;;;;9.71;83.30;101855.59;5035624;28;20107;-58
2022/03/14 04:08:10;;;;;;;6.70;4.80;;;;;;;9.61;83.36;101856.41;5035439;28;20036;-59
2022/03/14 04:10:36;;;;;;;7.87;5.43;;;;;;;9.62;83.89;101869.47;5035555;28;20112;-58
2022/03/14 04:13:03;;;;;;;6.15;5.18;;;;;;;9.60;84.48;101876.44;5035458;28;20053;-58
2022/03/14 04:15:29;;;;;;;6.60;4.82;;;;;;;9.55;85.13;101880.75;5035026;28;20391;-58
2022/03/14 04:17:57;;;;;;;6.82;4.97;;;;;;;9.53;85.39;101881.59;5035296;28;20037;-58
2022/03/14 04:20:23;;;;;;;6.07;5.05;;;;;;;9.56;85.72;101886.84;5035753;28;20045;-59
2022/03/14 04:22:49;;;;;;;6.32;5.07;;;;;;;9.53;86.07;101890.31;5034718;28;20460;-59
2022/03/14 04:25:15;;;;;;;7.00;5.50;;;;;;;9.49;86.24;101893.78;5035280;28;20059;-59
2022/03/14 04:27:40;;;;;;;7.07;5.45;;;;;;;9.47;86.36;101898.13;5035142;28;20029;-59
2022/03/14 04:30:07;;;;;;;6.28;5.57;;;;;;;9.49;86.21;101903.34;5034467;28;20141;-59
2022/03/14 04:32:32;;;;;;;8.43;6.20;;;;;;;9.32;86.37;101877.09;5034985;28;20025;-59
2022/03/14 04:34:57;;;;;;;6.57;5.70;;;;;;;9.43;86.42;101897.22;5035142;28;20436;-59
2022/03/14 04:37:23;;;;;;;6.65;5.93;;;;;;;9.39;86.71;101912.84;5034467;28;20040;-59
2022/03/14 04:39:48;;;;;;;8.13;6.22;;;;;;;9.33;86.94;101910.19;5035026;28;20040;-59
2022/03/14 04:42:17;;;;;;;8.25;6.50;;;;;;;9.32;86.98;101914.53;5035023;28;20061;-58
2022/03/14 04:44:44;;;;;;;8.10;6.43;;;;;;;9.28;87.08;101923.19;5035021;28;20036;-59
2022/03/14 04:47:10;;;;;;;8.63;6.70;;;;;;;9.20;87.26;101919.63;5034832;28;20030;-59
2022/03/14 04:49:35;;;;;;;7.47;6.47;;;;;;;9.22;87.54;101920.53;5034747;28;20030;-58
2022/03/14 04:52:00;;;;;;;8.90;6.40;;;;;;;9.08;87.28;101911.69;5034914;28;20048;-59
2022/03/14 04:54:26;;;;;;;9.05;7.05;;;;;;;9.17;87.22;101927.47;5034695;28;20029;-59
2022/03/14 04:56:51;;;;;;;7.85;6.85;;;;;;;9.23;87.04;101942.28;5034890;28;20049;-59
2022/03/14 04:59:17;;;;;;;8.35;7.05;;;;;;;9.09;87.55;101936.94;5034969;28;20429;-60
2022/03/14 05:01:42;;;;;;;9.75;7.20;;;;;;;9.16;86.81;101946.59;5033407;28;20372;-59
2022/03/14 05:04:07;;;;;;;8.13;7.28;;;;;;;9.01;87.50;101943.81;5035002;28;20029;-59
2022/03/14 05:06:33;;;;;;;9.85;7.15;;;;;;;9.08;87.43;101956.97;5034852;28;20439;-58
2022/03/14 05:08:59;;;;;;;9.63;7.57;;;;;;;9.10;87.18;101964.81;5034814;28;20065;-59
2022/03/14 05:11:25;;;;;;;10.23;7.38;;;;;;;9.12;86.85;101978.75;5034900;28;20029;-59
2022/03/14 05:13:50;;;;;;;11.82;7.75;;;;;;;9.06;87.50;101979.56;5037427;28;20109;-59
2022/03/14 05:16:16;;;;;;;13.40;7.50;;;;;;;9.05;87.48;101976.94;5039106;28;20116;-59
2022/03/14 05:18:41;;;;;;;9.82;8.00;;;;;;;9.03;87.28;101981.25;5038114;28;20486;-59
2022/03/14 05:21:06;;;;;;;10.00;8.20;;;;;;;9.08;86.88;101993.50;5038359;28;20091;-59
2022/03/14 05:23:31;;;;;;;11.65;8.23;;;;;;;9.08;87.29;101997.84;5038377;28;20037;-59
2022/03/14 05:25:57;;;;;;;11.45;8.48;;;;;;;9.03;86.81;101978.63;5038204;28;20037;-59
2022/03/14 05:28:22;;;;;;;15.73;9.60;;;;;;;9.07;86.95;101994.38;5038439;28;20439;-60
2022/03/14 05:30:48;;;;;;;15.13;9.35;;;;;;;9.11;87.10;102003.13;5038227;28;20037;-59
2022/03/14 05:33:13;;;;;;;14.30;10.05;;;;;;;9.12;86.84;102009.22;5037850;28;20025;-59
2022/03/14 05:35:38;;;;;;;12.80;10.00;;;;;;;9.13;86.77;102013.59;5037998;28;20432;-60
2022/03/14 05:38:04;;;;;;;13.63;9.43;;;;;;;9.15;86.65;102022.31;5037989;28;20025;-59
2022/03/14 05:40:30;;;;;;;13.57;10.70;;;;;;;9.18;86.38;102027.59;5038099;28;20142;-59
2022/03/14 05:42:56;;;;;;;15.02;11.18;;;;;;;9.10;86.64;102024.00;5037820;28;20091;-59
2022/03/14 05:45:22;;;;;;;15.15;10.30;;;;;;;9.13;86.51;102030.13;5037702;28;20029;-59
2022/03/14 05:47:48;;;;;;;15.70;10.88;;;;;;;9.11;86.79;102031.84;5033012;28;20341;-59
2022/03/14 05:50:14;;;;;;;17.13;11.02;;;;;;;9.11;86.97;102042.28;5037134;28;20036;-59
2022/03/14 05:52:40;;;;;;;17.65;10.35;;;;;;;9.13;86.94;102045.78;5038257;28;20382;-59
2022/03/14 05:55:06;;;;;;;16.50;10.85;;;;;;;9.08;86.88;102050.94;5037736;28;20068;-59
2022/03/14 05:57:33;;;;;;;17.55;10.95;;;;;;;9.06;87.03;102044.84;5037796;28;20451;-59
2022/03/14 05:59:58;;;;;;;16.13;11.20;;;;;;;9.15;86.83;102059.75;5037264;28;20033;-59
2022/03/14 06:02:25;;;;;;;15.68;11.32;;;;;;;9.08;87.16;102057.91;5037415;28;20030;-59
2022/03/14 06:04:51;;;;;;;14.45;11.13;;;;;;;9.10;87.15;102058.81;5037147;28;20122;-60
2022/03/14 06:07:21;;;;;;;19.08;11.65;;;;;;;9.08;87.60;102064.00;5034489;28;20397;-60
2022/03/14 06:09:48;;;;;;;17.52;12.60;;;;;;;9.12;87.40;102067.53;5037329;28;20041;-59
2022/03/14 06:12:33;;;;;;;15.68;11.93;;;;;;;9.15;86.68;102078.03;5037596;28;20148;-60
2022/03/14 06:15:01;;;;;;;15.30;11.85;;;;;;;9.13;87.03;102074.53;5036390;28;20055;-59
2022/03/14 06:17:26;;;;;;;18.35;12.32;;;;;;;9.18;86.81;102083.25;5036653;28;20029;-59
2022/03/14 06:19:52;;;;;;;20.27;12.60;;;;;;;9.21;86.77;102079.81;5037004;28;20051;-59
2022/03/14 06:22:19;;;;;;;20.45;12.45;;;;;;;9.20;86.83;102092.00;5036606;28;20021;-58
2022/03/14 06:24:46;;;;;;;21.10;13.35;;;;;;;9.18;86.94;102085.88;5036247;28;20112;-60
2022/03/14 06:27:12;;;;;;;17.92;13.20;;;;;;;9.23;87.12;102086.81;5036561;28;20044;-59
2022/03/14 06:29:37;;;;;;;20.50;13.40;;;;;;;9.22;87.04;102095.50;5036785;28;20372;-59
2022/03/14 06:32:04;;;;;;;17.08;13.02;;;;;;;9.21;86.78;102095.50;5037061;28;20420;-59
2022/03/14 06:34:30;;;;;;;21.30;14.50;;;;;;;9.27;86.76;102108.63;5037053;28;20513;-59
2022/03/14 06:36:56;;;;;;;20.63;14.02;;;;;;;9.25;86.63;102113.84;5037023;28;20100;-60
2022/03/14 06:39:21;;;;;;;19.75;13.85;;;;;;;9.27;86.91;102116.47;5036870;28;20061;-59
2022/03/14 06:41:47;;;;;;;19.73;14.15;;;;;;;9.25;87.02;102123.41;5037383;28;20444;-59
2022/03/14 06:44:13;;;;;;;20.17;14.43;;;;;;;9.37;86.43;102113.97;5036805;28;20348;-60
2022/03/14 06:46:38;;;;;;;22.05;13.98;;;;;;;9.30;87.07;102119.13;5036779;28;20029;-60
2022/03/14 06:49:03;;;;;;;23.67;14.55;;;;;;;9.21;87.52;102117.25;5035832;28;20033;-58
2022/03/14 06:51:29;;;;;;;22.63;14.45;;;;;;;9.10;87.42;102103.19;5036567;28;20045;-58
2022/03/14 06:53:54;;;;;;;21.15;14.25;;;;;;;9.07;87.39;102101.44;5036858;28;20116;-61
2022/03/14 06:56:21;;;;;;;22.55;14.48;;;;;;;9.19;87.32;102128.53;5036369;28;20029;-59
2022/03/14 06:58:46;;;;;;;18.15;14.40;;;;;;;9.32;86.73;102136.56;5036597;28;20103;-59
2022/03/14 07:01:12;;;;;;;22.02;14.40;;;;;;;9.32;86.81;102141.81;5035785;28;20033;-59
2022/03/14 07:03:37;;;;;;;22.92;14.43;;;;;;;9.33;86.73;102137.44;5035936;28;20111;-58
2022/03/14 07:06:03;;;;;;;20.35;13.43;;;;;;;9.34;86.57;102145.31;5036013;28;20356;-59
2022/03/14 07:08:28;;;;;;;21.30;13.77;;;;;;;9.32;86.33;102140.94;5036390;28;20030;-59
2022/03/14 07:10:54;;;;;;;22.17;12.98;;;;;;;9.40;86.28;102152.31;5036092;28;20037;-59
2022/03/14 07:13:19;;;;;;;21.98;13.73;;;;;;;9.44;85.99;102143.69;5036276;28;20035;-58
2022/03/14 07:15:45;;;;;;;22.63;13.25;;;;;;;9.49;86.12;102148.97;5036674;28;20061;-59
2022/03/14 07:18:11;;;;;;;21.42;13.60;;;;;;;9.55;85.70;102159.47;5035903;28;20068;-59
2022/03/14 07:20:36;;;;;;;21.58;13.68;;;;;;;9.55;85.27;102154.25;5036431;28;20095;-58
2022/03/14 07:23:02;;;;;;;21.45;13.70;;;;;;;9.61;84.71;102157.81;5036101;28;20041;-58
2022/03/14 07:25:32;;;;;;;22.95;13.35;;;;;;;9.63;84.87;102160.44;5036087;28;20037;-58
2022/03/14 07:28:03;;;;;;;20.65;13.32;;;;;;;9.72;84.28;102166.66;5035776;28;20120;-58
2022/03/14 07:30:29;;;;;;;18.15;13.18;;;;;;;9.65;84.51;102169.19;5067676;28;20072;-58
2022/03/14 07:32:54;;;;;;;19.77;12.80;;;;;;;9.75;83.33;102173.66;5036134;28;20034;-58
2022/03/14 07:35:21;;;;;;;21.67;13.10;;;;;;;9.67;83.91;102172.72;5036084;28;20037;-58
2022/03/14 07:37:47;;;;;;;23.08;13.27;;;;;;;9.66;84.05;102160.50;5035689;28;20460;-59
2022/03/14 07:40:13;;;;;;;19.85;12.93;;;;;;;9.68;83.92;102161.41;5035613;28;20033;-58
2022/03/14 07:42:44;;;;;;;20.95;13.50;;;;;;;9.71;84.00;102161.41;5035584;28;20037;-58
2022/03/14 07:45:11;;;;;;;21.77;13.85;;;;;;;9.76;83.61;102171.06;5036147;28;20043;-58
2022/03/14 07:47:39;;;;;;;23.05;14.20;;;;;;;9.85;83.14;102182.50;5035643;28;20049;-58
2022/03/14 07:50:05;;;;;;;19.17;13.40;;;;;;;9.88;82.89;102178.16;5035843;28;20029;-58
2022/03/14 07:52:31;;;;;;;20.90;13.82;;;;;;;9.91;83.06;102179.91;5035759;28;20033;-58
2022/03/14 07:54:57;;;;;;;22.15;14.32;;;;;;;9.94;83.04;102186.06;5034899;28;20056;-58
2022/03/14 07:57:22;;;;;;;22.05;12.98;;;;;;;9.98;82.48;102187.88;5035480;28;20025;-58
2022/03/14 07:59:48;;;;;;;19.30;13.63;;;;;;;9.95;82.58;102193.06;5035706;28;20049;-59
2022/03/14 08:02:13;;;;;;;21.88;13.73;;;;;;;10.03;82.47;102204.50;5035702;28;20443;-58
2022/03/14 08:04:40;;;;;;;22.02;14.10;;;;;;;9.98;81.95;102211.41;5035377;28;20044;-58
2022/03/14 08:07:06;;;;;;;26.00;14.13;;;;;;;10.00;82.46;102208.81;5035196;28;20025;-58
2022/03/14 08:09:32;;;;;;;23.85;14.05;;;;;;;9.97;82.26;102212.25;5035602;28;20163;-58
2022/03/14 08:11:58;;;;;;;21.35;14.85;;;;;;;10.01;82.38;102223.63;5035049;28;20029;-58
2022/03/14 08:14:24;;;;;;;21.50;14.40;;;;;;;10.05;82.56;102222.78;5035332;28;20060;-55
2022/03/14 08:16:49;;;;;;;22.83;14.85;;;;;;;10.06;82.06;102220.19;5034676;28;20041;-58
2022/03/14 08:19:14;;;;;;;28.35;14.20;;;;;;;10.06;81.79;102219.31;5035231;28;20054;-59
2022/03/14 08:21:40;;;;;;;25.00;14.82;;;;;;;10.10;81.81;102227.22;5035231;28;20026;-59
2022/03/14 08:24:06;;;;;;;21.60;14.18;;;;;;;10.18;81.03;102235.16;5067517;28;20045;-59
2022/03/14 08:26:33;;;;;;;22.90;14.70;;;;;;;10.16;81.72;102246.47;5034833;28;20111;-58
2022/03/14 08:29:00;;;;;;;22.63;14.32;;;;;;;10.18;81.56;102240.38;5034976;28;20025;-58
2022/03/14 08:31:25;;;;;;;21.63;13.40;;;;;;;10.22;81.30;102241.31;5035278;28;20037;-58
2022/03/14 08:33:52;;;;;;;20.67;13.95;;;;;;;10.25;81.05;102243.97;5067098;28;20463;-58
2022/03/14 08:36:21;;;;;;;24.48;13.88;;;;;;;10.29;81.16;102246.63;5034902;28;20032;-59
2022/03/14 08:38:49;;;;;;;19.55;13.20;;;;;;;10.19;81.13;102226.47;5034891;28;20117;-58
2022/03/14 08:41:16;;;;;;;21.02;12.82;;;;;;;10.37;80.86;102254.56;5034895;28;20053;-58
2022/03/14 08:43:43;;;;;;;19.23;13.23;;;;;;;10.46;80.53;102258.13;5035274;28;20040;-60
2022/03/14 08:46:09;;;;;;;17.60;12.65;;;;;;;10.58;80.16;102260.00;5035077;28;20037;-59
2022/03/14 08:48:35;;;;;;;22.13;12.70;;;;;;;10.67;79.06;102270.56;5034640;28;20052;-59
2022/03/14 08:51:00;;;;;;;21.20;12.88;;;;;;;10.73;78.83;102270.63;5034085;28;20112;-60
2022/03/14 08:53:25;;;;;;;21.50;12.13;;;;;;;10.80;78.33;102277.66;5034949;28;20030;-60
2022/03/14 08:55:52;;;;;;;21.23;11.68;;;;;;;10.86;77.77;102289.06;5034779;28;20030;-59
2022/03/14 08:58:17;;;;;;;21.35;11.00;;;;;;;10.81;77.34;102286.38;5029737;28;20099;-59
2022/03/14 09:00:43;;;;;;;21.50;11.32;;;;;;;10.76;77.61;102277.59;5033469;28;20037;-60
2022/03/14 09:03:09;;;;;;;15.73;10.57;;;;;;;10.81;77.70;102287.25;5032807;28;20116;-60
2022/03/14 09:05:34;;;;;;;20.17;10.88;;;;;;;10.94;77.55;102292.59;5033741;28;20045;-59
2022/03/14 09:08:00;;;;;;;16.95;11.25;;;;;;;11.01;76.71;102299.66;5034899;28;20033;-60
2022/03/14 09:10:25;;;;;;;20.42;11.25;;;;;;;11.07;76.80;102297.09;5034116;28;20040;-59
2022/03/14 09:12:51;;;;;;;18.20;10.68;;;;;;;11.39;77.00;102303.44;5034730;28;20104;-59
2022/03/14 09:15:17;;;;;;;16.65;10.18;;;;;;;11.62;75.42;102300.94;5034413;28;20429;-59
2022/03/14 09:17:59;;;;;;;17.60;10.43;;;;;;;11.75;74.61;102302.78;5033263;28;20033;-59
2022/03/14 09:20:28;;;;;;;16.88;10.48;;;;;;;11.89;74.23;102310.75;5035037;28;20081;-59
2022/03/14 09:22:55;;;;;;;16.92;9.93;;;;;;;11.91;73.61;102316.88;5034810;28;20029;-59
2022/03/14 09:25:22;;;;;;;19.40;10.00;;;;;;;12.01;73.18;102318.66;5034532;28;20033;-60
2022/03/14 09:27:48;;;;;;;14.18;9.15;;;;;;;11.97;72.55;102309.00;5034584;28;20051;-59
2022/03/14 09:30:14;;;;;;;14.50;9.60;;;;;;;12.10;72.84;102318.72;5034263;28;20101;-59
2022/03/14 09:32:41;;;;;;;16.80;9.32;;;;;;;12.26;71.86;102324.00;5034472;28;20151;-59
2022/03/14 09:35:08;;;;;;;13.52;9.20;;;;;;;12.42;70.73;102324.06;5030730;28;20051;-60
2022/03/14 09:37:36;;;;;;;12.55;8.98;;;;;;;12.49;68.98;102314.44;5027063;28;20021;-59
2022/03/14 09:40:05;;;;;;;13.40;8.18;;;;;;;12.46;69.68;102332.81;5033334;28;20146;-58
2022/03/14 09:42:33;;;;;;;15.45;8.82;;;;;;;12.36;69.50;102337.16;5033145;28;20029;-58
2022/03/14 09:44:59;;;;;;;15.80;8.45;;;;;;;12.26;69.10;102345.88;5032733;28;20044;-60
2022/03/14 09:47:25;;;;;;;14.30;8.60;;;;;;;12.23;69.60;102352.88;5032265;28;20037;-59
2022/03/14 09:49:55;;;;;;;15.85;8.50;;;;;;;12.32;70.07;102355.50;5032953;28;20437;-59
2022/03/14 09:52:22;;;;;;;14.55;8.13;;;;;;;12.46;69.06;102359.09;5032442;28;20033;-59
2022/03/14 09:54:49;;;;;;;11.93;7.40;;;;;;;12.59;68.65;102366.13;5034252;28;20033;-59
2022/03/14 09:57:15;;;;;;;15.68;8.13;;;;;;;12.68;67.91;102374.00;5034057;28;20025;-59
2022/03/14 09:59:41;;;;;;;15.27;8.05;;;;;;;12.70;67.73;102382.75;5034857;28;20106;-61
2022/03/14 10:02:12;;;;;;;16.92;8.45;;;;;;;12.60;68.09;102386.25;5037521;28;20033;-59
2022/03/14 10:04:37;;;;;;;15.05;8.40;;;;;;;12.52;68.23;102383.59;5037074;28;20108;-59
2022/03/14 10:07:03;;;;;;;11.90;8.55;;;;;;;12.43;68.53;102382.69;5037106;28;20068;-59
2022/03/14 10:09:28;;;;;;;14.60;8.52;;;;;;;12.43;69.12;102394.06;5037812;28;20033;-59
2022/03/14 10:11:55;;;;;;;12.40;8.20;;;;;;;12.42;68.84;102391.44;5037777;28;20090;-59
2022/03/14 10:14:22;;;;;;;11.55;8.18;;;;;;;12.35;68.91;102390.53;5037081;28;20338;-60
2022/03/14 10:16:47;;;;;;;14.93;9.52;;;;;;;12.43;69.17;102391.44;5036982;28;20456;-59
2022/03/14 10:19:20;;;;;;;14.63;7.70;;;;;;;12.44;68.72;102390.59;5037215;28;20045;-59
2022/03/14 10:21:46;;;;;;;11.80;7.22;;;;;;;12.58;67.89;102400.25;5037715;28;20339;-59
2022/03/14 10:24:13;;;;;;;13.15;6.40;;;;;;;12.62;66.92;102394.16;5053925;28;20033;-59
2022/03/14 10:26:43;;;;;;;10.07;6.38;;;;;;;12.74;66.92;102408.19;5057092;28;20098;-59
2022/03/14 10:29:13;;;;;;;10.18;6.57;;;;;;;12.79;66.35;102408.19;5056862;28;20467;-60
2022/03/14 10:31:54;;;;;;;12.57;7.28;;;;;;;12.74;66.23;102423.94;5057000;28;20044;-59
2022/03/14 10:34:19;;;;;;;15.90;8.77;;;;;;;12.61;65.74;102416.03;5056739;28;20106;-59
2022/03/14 10:36:53;;;;;;;12.95;8.23;;;;;;;12.53;66.62;102416.84;5056730;28;20040;-59
2022/03/14 10:39:30;;;;;;;14.20;8.48;;;;;;;12.64;67.06;102418.66;5057030;28;20037;-58
2022/03/14 10:42:12;;;;;;;12.65;7.35;;;;;;;12.85;66.49;102429.22;5056756;28;20483;-59
2022/03/14 10:44:41;;;;;;;12.93;7.63;;;;;;;12.87;66.19;102433.59;5057026;28;20091;-59
2022/03/14 10:47:09;;;;;;;13.80;7.93;;;;;;;12.77;65.48;102429.22;5056671;28;20120;-59
2022/03/14 10:49:37;;;;;;;13.10;7.25;;;;;;;12.80;64.89;102439.72;5056621;28;20044;-58
2022/03/14 10:52:10;;;;;;;13.05;7.30;;;;;;;12.75;66.17;102444.09;5056598;28;20036;-58
2022/03/14 10:54:36;;;;;;;13.63;7.80;;;;;;;12.81;65.81;102443.22;5056306;28;20032;-59
2022/03/14 10:57:13;;;;;;;13.90;7.95;;;;;;;12.64;66.06;102435.28;5056101;28;20047;-59
2022/03/14 10:59:43;;;;;;;12.27;6.90;;;;;;;12.70;66.52;102444.94;5056424;28;20029;-59
2022/03/14 11:02:22;;;;;;;10.98;6.90;;;;;;;12.64;66.41;102453.66;5056226;28;20104;-59
2022/03/14 11:04:53;;;;;;;10.85;7.05;;;;;;;12.46;66.14;102450.97;5056145;28;20120;-59
2022/03/14 11:07:20;;;;;;;9.98;6.50;;;;;;;12.45;66.55;102443.97;5055869;28;20045;-59
2022/03/14 11:09:56;;;;;;;11.00;7.25;;;;;;;12.73;66.57;102442.31;5056401;28;20032;-59
2022/03/14 11:12:25;;;;;;;13.15;6.85;;;;;;;12.90;66.40;102438.88;5056403;28;20140;-60
2022/03/14 11:14:57;;;;;;;11.32;6.15;;;;;;;13.20;65.20;102452.97;5055933;28;20321;-59
2022/03/14 11:17:33;;;;;;;11.40;5.85;;;;;;;13.23;63.19;102453.84;5056410;28;20037;-60
2022/03/14 11:20:00;;;;;;;11.48;6.45;;;;;;;13.22;62.75;102438.97;5056418;28;20045;-59